createdAt,value
2023-02-09T00:00:08.895Z,-2.52
2023-02-09T00:02:35.564Z,-2.62
2023-02-09T00:05:02.001Z,-2.69
2023-02-09T00:07:28.464Z,-2.81
2023-02-09T00:09:54.922Z,-2.88
2023-02-09T00:12:39.890Z,-2.85
2023-02-09T00:15:07.082Z,-3.05
2023-02-09T00:17:35.778Z,-3.04
2023-02-09T00:20:03.757Z,-3.01
2023-02-09T00:22:30.226Z,-3.14
2023-02-09T00:24:57.434Z,-3.11
2023-02-09T00:27:23.876Z,-3.15
2023-02-09T00:29:50.291Z,-3.12
2023-02-09T00:32:16.874Z,-3.34
2023-02-09T00:34:43.964Z,-3.46
2023-02-09T00:37:10.490Z,-3.39
2023-02-09T00:39:36.977Z,-3.37
2023-02-09T00:42:06.072Z,-3.33
2023-02-09T00:44:36.847Z,-3.05
2023-02-09T00:47:04.492Z,-3.08
2023-02-09T00:49:31.731Z,-2.92
2023-02-09T00:51:58.209Z,-2.83
2023-02-09T00:54:25.133Z,-2.95
2023-02-09T00:56:52.782Z,-3.17
2023-02-09T00:59:19.237Z,-3.17
2023-02-09T01:01:45.866Z,-3.26
2023-02-09T01:04:12.541Z,-3.27
2023-02-09T01:06:39.217Z,-3.20
2023-02-09T01:09:05.691Z,-3.26
2023-02-09T01:11:32.198Z,-3.30
2023-02-09T01:14:00.102Z,-3.39
2023-02-09T01:16:28.839Z,-3.49
2023-02-09T01:18:56.025Z,-3.52
2023-02-09T01:21:23.378Z,-3.60
2023-02-09T01:23:50.594Z,-3.68
2023-02-09T01:26:18.012Z,-3.72
2023-02-09T01:28:44.842Z,-3.72
2023-02-09T01:31:21.735Z,-3.75
2023-02-09T01:33:48.490Z,-3.76
2023-02-09T01:36:14.987Z,-3.77
2023-02-09T01:38:41.438Z,-3.84
2023-02-09T01:41:07.830Z,-3.88
2023-02-09T01:44:12.754Z,-3.93
2023-02-09T01:46:39.319Z,-3.92
2023-02-09T01:49:26.890Z,-3.95
2023-02-09T01:52:03.092Z,-3.94
2023-02-09T01:54:36.731Z,-3.91
2023-02-09T01:57:08.112Z,-3.84
2023-02-09T01:59:37.928Z,-3.89
2023-02-09T02:02:06.351Z,-3.92
2023-02-09T02:04:37.271Z,-3.88
2023-02-09T02:07:18.115Z,-3.94
2023-02-09T02:09:45.984Z,-3.89
2023-02-09T02:12:12.730Z,-3.96
2023-02-09T02:14:40.221Z,-4.04
2023-02-09T02:17:29.625Z,-4.06
2023-02-09T02:20:11.377Z,-4.05
2023-02-09T02:22:46.665Z,-4.09
2023-02-09T02:25:13.082Z,-4.11
2023-02-09T02:28:14.018Z,-4.16
2023-02-09T02:30:59.169Z,-4.22
2023-02-09T02:33:45.494Z,-4.30
2023-02-09T02:36:11.869Z,-4.32
2023-02-09T02:38:54.442Z,-4.32
2023-02-09T02:41:28.977Z,-4.31
2023-02-09T02:44:08.510Z,-4.35
2023-02-09T02:46:48.524Z,-4.40
2023-02-09T02:49:33.829Z,-4.55
2023-02-09T02:52:05.357Z,-4.50
2023-02-09T02:54:37.892Z,-4.48
2023-02-09T02:57:10.222Z,-4.53
2023-02-09T02:59:42.990Z,-4.64
2023-02-09T03:02:36.760Z,-4.63
2023-02-09T03:05:05.693Z,-4.68
2023-02-09T03:07:32.998Z,-4.71
2023-02-09T03:10:01.465Z,-4.77
2023-02-09T03:12:41.298Z,-4.68
2023-02-09T03:15:13.230Z,-4.68
2023-02-09T03:18:01.538Z,-4.71
2023-02-09T03:20:49.746Z,-4.75
2023-02-09T03:23:54.769Z,-4.69
2023-02-09T03:26:40.975Z,-4.65
2023-02-09T03:29:09.259Z,-4.57
2023-02-09T03:31:37.627Z,-4.56
2023-02-09T03:34:06.148Z,-4.57
2023-02-09T03:36:37.201Z,-4.73
2023-02-09T03:39:03.886Z,-4.68
2023-02-09T03:41:30.449Z,-4.54
2023-02-09T03:44:15.375Z,-4.50
2023-02-09T03:46:43.681Z,-4.56
2023-02-09T03:49:10.834Z,-4.47
2023-02-09T03:51:37.216Z,-4.50
2023-02-09T03:54:03.861Z,-4.53
2023-02-09T03:56:30.575Z,-4.50
2023-02-09T03:58:57.228Z,-4.53
2023-02-09T04:01:23.705Z,-4.62
2023-02-09T04:03:50.353Z,-4.68
2023-02-09T04:06:16.861Z,-4.77
2023-02-09T04:08:43.288Z,-4.83
2023-02-09T04:11:09.906Z,-4.90
2023-02-09T04:13:36.398Z,-4.98
2023-02-09T04:16:03.044Z,-5.04
2023-02-09T04:18:29.489Z,-5.08
2023-02-09T04:20:55.939Z,-5.07
2023-02-09T04:23:22.412Z,-5.03
2023-02-09T04:25:48.807Z,-4.97
2023-02-09T04:28:15.425Z,-4.93
2023-02-09T04:30:43.783Z,-4.94
2023-02-09T04:33:13.325Z,-5.01
2023-02-09T04:35:39.873Z,-5.03
2023-02-09T04:38:06.475Z,-5.04
2023-02-09T04:40:32.919Z,-5.08
2023-02-09T04:42:59.323Z,-5.11
2023-02-09T04:45:26.205Z,-5.11
2023-02-09T04:47:52.672Z,-5.10
2023-02-09T04:50:19.256Z,-5.07
2023-02-09T04:52:45.704Z,-5.10
2023-02-09T04:55:12.126Z,-5.14
2023-02-09T04:57:57.209Z,-5.18
2023-02-09T05:00:23.669Z,-5.24
2023-02-09T05:02:50.206Z,-5.29
2023-02-09T05:05:16.702Z,-5.31
2023-02-09T05:07:43.123Z,-5.34
2023-02-09T05:10:09.776Z,-5.36
2023-02-09T05:12:36.164Z,-5.38
2023-02-09T05:15:02.703Z,-5.35
2023-02-09T05:17:31.679Z,-5.32
2023-02-09T05:19:58.676Z,-5.35
2023-02-09T05:22:25.442Z,-5.36
2023-02-09T05:24:51.943Z,-5.38
2023-02-09T05:27:18.381Z,-5.39
2023-02-09T05:29:45.046Z,-5.49
2023-02-09T05:32:11.538Z,-5.57
2023-02-09T05:34:38.069Z,-5.51
2023-02-09T05:37:04.634Z,-5.57
2023-02-09T05:39:31.031Z,-5.37
2023-02-09T05:42:15.686Z,-5.27
2023-02-09T05:44:47.155Z,-5.36
2023-02-09T05:47:17.152Z,-5.51
2023-02-09T05:49:43.580Z,-5.69
2023-02-09T05:52:11.300Z,-5.58
2023-02-09T05:54:38.020Z,-5.30
2023-02-09T05:57:05.350Z,-5.13
2023-02-09T05:59:32.164Z,-5.08
2023-02-09T06:01:59.055Z,-5.21
2023-02-09T06:04:26.108Z,-5.13
2023-02-09T06:06:53.030Z,-5.07
2023-02-09T06:09:19.617Z,-5.08
2023-02-09T06:11:46.174Z,-5.11
2023-02-09T06:14:13.128Z,-5.19
2023-02-09T06:16:41.120Z,-5.23
2023-02-09T06:19:12.702Z,-5.24
2023-02-09T06:21:39.282Z,-5.26
2023-02-09T06:24:05.811Z,-5.30
2023-02-09T06:26:32.465Z,-5.34
2023-02-09T06:28:58.904Z,-5.38
2023-02-09T06:31:25.561Z,-5.38
2023-02-09T06:33:52.174Z,-5.44
2023-02-09T06:36:18.565Z,-5.46
2023-02-09T06:38:44.968Z,-5.46
2023-02-09T06:41:11.798Z,-5.46
2023-02-09T06:43:38.257Z,-5.47
2023-02-09T06:46:09.081Z,-5.48
2023-02-09T06:48:36.511Z,-5.49
2023-02-09T06:51:08.315Z,-5.47
2023-02-09T06:53:35.639Z,-5.44
2023-02-09T06:56:02.400Z,-5.32
2023-02-09T06:58:28.860Z,-5.25
2023-02-09T07:00:55.250Z,-5.21
2023-02-09T07:03:21.730Z,-5.19
2023-02-09T07:05:48.146Z,-5.14
2023-02-09T07:08:14.810Z,-5.06
2023-02-09T07:10:41.497Z,-5.10
2023-02-09T07:13:07.959Z,-5.01
2023-02-09T07:15:34.504Z,-4.85
2023-02-09T07:18:01.012Z,-4.74
2023-02-09T07:20:27.409Z,-4.61
2023-02-09T07:22:53.819Z,-4.50
2023-02-09T07:25:20.235Z,-4.19
2023-02-09T07:27:46.725Z,-3.78
2023-02-09T07:30:13.637Z,-3.44
2023-02-09T07:32:40.226Z,-3.34
2023-02-09T07:35:06.760Z,-3.20
2023-02-09T07:37:35.782Z,-2.78
2023-02-09T07:40:02.447Z,-2.16
2023-02-09T07:42:28.848Z,-1.85
2023-02-09T07:44:55.334Z,-1.87
2023-02-09T07:47:21.791Z,-2.01
2023-02-09T07:49:48.354Z,-1.87
2023-02-09T07:52:14.833Z,-1.59
2023-02-09T07:54:41.311Z,-1.41
2023-02-09T07:57:07.736Z,-1.47
2023-02-09T07:59:34.164Z,-1.24
2023-02-09T08:02:00.989Z,-1.26
2023-02-09T08:04:27.612Z,-0.85
2023-02-09T08:06:55.281Z,-0.37
2023-02-09T08:09:21.740Z,0.05
2023-02-09T08:12:07.822Z,0.48
2023-02-09T08:14:42.905Z,2.05
2023-02-09T08:17:28.004Z,3.30
2023-02-09T08:20:00.701Z,4.32
2023-02-09T08:22:32.034Z,4.68
2023-02-09T08:25:01.644Z,5.24
2023-02-09T08:27:28.874Z,5.83
2023-02-09T08:29:55.568Z,6.44
2023-02-09T08:32:22.708Z,7.86
2023-02-09T08:34:49.264Z,8.68
2023-02-09T08:37:15.675Z,9.49
2023-02-09T08:39:42.222Z,10.14
2023-02-09T08:42:08.602Z,10.19
2023-02-09T08:44:36.103Z,9.25
2023-02-09T08:47:02.727Z,10.07
2023-02-09T08:49:29.302Z,12.10
2023-02-09T08:51:55.735Z,12.47
2023-02-09T08:54:22.191Z,13.16
2023-02-09T08:56:48.593Z,13.99
2023-02-09T08:59:15.096Z,14.35
2023-02-09T09:01:42.371Z,15.20
2023-02-09T09:04:09.872Z,15.92
2023-02-09T09:06:36.661Z,15.74
2023-02-09T09:09:03.157Z,16.27
2023-02-09T09:11:29.853Z,16.18
2023-02-09T09:13:57.924Z,15.90
2023-02-09T09:16:24.535Z,14.80
2023-02-09T09:18:51.129Z,15.95
2023-02-09T09:21:18.935Z,17.01
2023-02-09T09:23:45.819Z,17.60
2023-02-09T09:26:12.693Z,16.72
2023-02-09T09:28:39.127Z,17.82
2023-02-09T09:31:12.594Z,16.61
2023-02-09T09:33:39.569Z,16.82
2023-02-09T09:36:06.994Z,17.27
2023-02-09T09:38:34.300Z,18.49
2023-02-09T09:41:01.348Z,18.74
2023-02-09T09:43:33.126Z,18.84
2023-02-09T09:46:00.784Z,14.99
2023-02-09T09:48:38.638Z,14.01
2023-02-09T09:51:16.301Z,13.62
2023-02-09T09:53:46.065Z,12.87
2023-02-09T09:56:14.038Z,10.96
2023-02-09T09:58:43.866Z,11.59
2023-02-09T10:01:15.397Z,10.69
2023-02-09T10:03:42.785Z,9.74
2023-02-09T10:06:35.879Z,9.79
2023-02-09T10:09:06.630Z,9.31
2023-02-09T10:11:48.557Z,7.77
2023-02-09T10:14:15.908Z,9.16
2023-02-09T10:16:44.047Z,10.60
2023-02-09T10:19:30.317Z,12.33
2023-02-09T10:21:56.853Z,14.42
2023-02-09T10:24:33.330Z,14.91
2023-02-09T10:27:25.564Z,14.35
2023-02-09T10:29:52.013Z,13.43
2023-02-09T10:32:39.912Z,10.89
2023-02-09T10:35:27.805Z,10.58
2023-02-09T10:38:00.603Z,11.15
2023-02-09T10:40:32.694Z,10.68
2023-02-09T10:43:21.620Z,9.39
2023-02-09T10:45:53.825Z,7.44
2023-02-09T10:48:21.823Z,6.70
2023-02-09T10:50:49.795Z,6.78
2023-02-09T10:53:35.696Z,7.14
2023-02-09T10:56:16.609Z,6.40
2023-02-09T10:58:51.217Z,6.77
2023-02-09T11:01:28.634Z,6.66
2023-02-09T11:03:59.945Z,4.67
2023-02-09T11:06:26.877Z,5.96
2023-02-09T11:09:14.274Z,6.15
2023-02-09T11:11:43.059Z,5.73
2023-02-09T11:14:19.036Z,6.43
2023-02-09T11:17:20.189Z,7.40
2023-02-09T11:20:08.875Z,7.57
2023-02-09T11:22:54.236Z,6.64
2023-02-09T11:25:49.842Z,6.42
2023-02-09T11:28:35.046Z,6.90
2023-02-09T11:31:46.464Z,7.22
2023-02-09T11:34:42.599Z,7.53
2023-02-09T11:37:43.102Z,7.52
2023-02-09T11:40:21.949Z,6.20
2023-02-09T11:42:55.119Z,6.09
2023-02-09T11:45:50.450Z,6.29
2023-02-09T11:48:25.209Z,6.33
2023-02-09T11:51:00.678Z,6.98
2023-02-09T11:53:42.439Z,6.96
2023-02-09T11:56:12.800Z,7.05
2023-02-09T11:58:57.373Z,7.26
2023-02-09T12:01:37.703Z,7.73
2023-02-09T12:04:31.680Z,7.89
2023-02-09T12:07:10.367Z,8.24
2023-02-09T12:09:45.259Z,8.76
2023-02-09T12:12:26.911Z,8.61
2023-02-09T12:15:14.636Z,8.51
2023-02-09T12:17:56.404Z,6.81
2023-02-09T12:20:53.957Z,8.12
2023-02-09T12:23:31.681Z,7.84
2023-02-09T12:26:02.405Z,6.99
2023-02-09T12:28:31.604Z,7.12
2023-02-09T12:30:58.060Z,9.12
2023-02-09T12:33:24.550Z,9.71
2023-02-09T12:36:31.255Z,9.84
2023-02-09T12:39:04.773Z,10.17
2023-02-09T12:41:51.574Z,8.61
2023-02-09T12:44:19.336Z,9.42
2023-02-09T12:46:46.757Z,9.27
2023-02-09T12:49:20.040Z,9.39
2023-02-09T12:51:46.529Z,9.83
2023-02-09T12:54:39.159Z,10.38
2023-02-09T12:57:20.718Z,10.81
2023-02-09T12:59:50.354Z,10.69
2023-02-09T13:02:38.783Z,10.18
2023-02-09T13:05:19.056Z,8.24
2023-02-09T13:08:06.105Z,6.89
2023-02-09T13:10:51.730Z,6.96
2023-02-09T13:13:33.770Z,7.14
2023-02-09T13:16:00.489Z,5.64
2023-02-09T13:18:55.438Z,5.99
2023-02-09T13:21:40.057Z,7.13
2023-02-09T13:24:32.938Z,7.81
2023-02-09T13:27:00.763Z,7.37
2023-02-09T13:29:32.210Z,7.61
2023-02-09T13:32:46.273Z,7.81
2023-02-09T13:35:30.398Z,7.99
2023-02-09T13:37:59.747Z,8.08
2023-02-09T13:40:29.630Z,8.64
2023-02-09T13:43:02.284Z,8.84
2023-02-09T13:45:28.931Z,7.91
2023-02-09T13:47:57.300Z,8.02
2023-02-09T13:50:25.844Z,8.34
2023-02-09T13:52:52.364Z,7.89
2023-02-09T13:55:25.284Z,7.70
2023-02-09T13:58:02.122Z,8.16
2023-02-09T14:00:45.691Z,7.22
2023-02-09T14:03:23.699Z,7.43
2023-02-09T14:05:58.110Z,7.97
2023-02-09T14:08:26.301Z,7.46
2023-02-09T14:10:58.542Z,6.97
2023-02-09T14:13:31.948Z,6.69
2023-02-09T14:16:07.626Z,6.53
2023-02-09T14:18:43.709Z,7.17
2023-02-09T14:21:10.061Z,7.52
2023-02-09T14:23:44.971Z,7.68
2023-02-09T14:26:14.086Z,7.30
2023-02-09T14:28:43.338Z,7.42
2023-02-09T14:31:25.346Z,7.65
2023-02-09T14:33:54.768Z,7.66
2023-02-09T14:36:23.306Z,7.69
2023-02-09T14:38:51.650Z,7.39
2023-02-09T14:41:26.897Z,7.57
2023-02-09T14:43:59.623Z,7.51
2023-02-09T14:46:26.167Z,7.45
2023-02-09T14:48:57.471Z,7.53
2023-02-09T14:51:24.310Z,7.57
2023-02-09T14:53:50.787Z,7.46
2023-02-09T14:56:23.714Z,7.40
2023-02-09T14:58:50.284Z,7.37
2023-02-09T15:01:17.084Z,7.36
2023-02-09T15:03:43.576Z,7.33
2023-02-09T15:06:12.926Z,7.29
2023-02-09T15:08:39.700Z,7.22
2023-02-09T15:11:28.461Z,7.16
2023-02-09T15:14:03.962Z,7.06
2023-02-09T15:16:31.112Z,6.96
2023-02-09T15:18:57.548Z,6.92
2023-02-09T15:21:24.128Z,6.79
2023-02-09T15:23:50.678Z,6.72
2023-02-09T15:26:20.434Z,6.64
2023-02-09T15:28:46.894Z,6.59
2023-02-09T15:31:15.998Z,6.46
2023-02-09T15:33:42.698Z,6.43
2023-02-09T15:36:16.655Z,6.40
2023-02-09T15:38:43.145Z,6.34
2023-02-09T15:41:29.142Z,6.27
2023-02-09T15:44:14.749Z,6.21
2023-02-09T15:46:59.864Z,6.15
2023-02-09T15:49:26.396Z,6.03
2023-02-09T15:51:52.903Z,5.98
2023-02-09T15:54:22.345Z,5.93
2023-02-09T15:56:48.832Z,5.79
2023-02-09T15:59:22.116Z,5.65
2023-02-09T16:01:49.511Z,5.52
2023-02-09T16:04:16.121Z,5.40
2023-02-09T16:06:50.108Z,5.27
2023-02-09T16:09:20.111Z,5.10
2023-02-09T16:11:48.472Z,5.01
2023-02-09T16:14:21.126Z,4.86
2023-02-09T16:16:48.709Z,4.81
2023-02-09T16:19:16.912Z,4.75
2023-02-09T16:21:45.315Z,4.62
2023-02-09T16:24:42.534Z,4.52
2023-02-09T16:27:22.414Z,4.48
2023-02-09T16:29:49.036Z,4.38
2023-02-09T16:32:22.398Z,4.29
2023-02-09T16:34:50.549Z,4.18
2023-02-09T16:37:23.290Z,4.09
2023-02-09T16:39:49.775Z,3.97
2023-02-09T16:42:16.526Z,3.93
2023-02-09T16:44:43.049Z,3.82
2023-02-09T16:47:18.007Z,3.65
2023-02-09T16:49:55.011Z,3.62
2023-02-09T16:52:25.932Z,3.47
2023-02-09T16:55:06.938Z,3.33
2023-02-09T16:57:33.458Z,3.20
2023-02-09T16:59:59.927Z,3.15
2023-02-09T17:02:38.469Z,3.06
2023-02-09T17:05:17.658Z,3.02
2023-02-09T17:07:54.049Z,2.95
2023-02-09T17:10:23.884Z,3.13
2023-02-09T17:12:52.594Z,3.16
2023-02-09T17:15:29.531Z,3.20
2023-02-09T17:18:02.445Z,2.93
2023-02-09T17:20:34.884Z,2.71
2023-02-09T17:23:01.580Z,2.38
2023-02-09T17:25:28.293Z,2.08
2023-02-09T17:27:54.824Z,1.92
2023-02-09T17:30:21.294Z,1.69
2023-02-09T17:32:55.810Z,1.57
2023-02-09T17:35:44.604Z,1.47
2023-02-09T17:38:21.966Z,1.40
2023-02-09T17:40:49.209Z,1.36
2023-02-09T17:43:15.664Z,1.32
2023-02-09T17:45:47.665Z,1.32
2023-02-09T17:48:15.252Z,1.27
2023-02-09T17:50:44.763Z,1.19
2023-02-09T17:53:17.541Z,1.16
2023-02-09T17:55:45.304Z,1.07
2023-02-09T17:58:13.600Z,1.02
2023-02-09T18:00:41.238Z,1.03
2023-02-09T18:03:18.239Z,1.07
2023-02-09T18:05:48.909Z,1.04
2023-02-09T18:08:15.505Z,1.00
2023-02-09T18:10:42.350Z,1.00
2023-02-09T18:13:17.851Z,0.87
2023-02-09T18:15:45.485Z,0.84
2023-02-09T18:18:12.081Z,0.87
2023-02-09T18:20:38.596Z,0.77
2023-02-09T18:23:05.378Z,0.67
2023-02-09T18:25:37.731Z,0.74
2023-02-09T18:28:06.852Z,0.77
2023-02-09T18:30:36.343Z,0.86
2023-02-09T18:33:04.024Z,0.73
2023-02-09T18:35:38.142Z,0.84
2023-02-09T18:38:07.477Z,0.89
2023-02-09T18:40:35.168Z,0.98
2023-02-09T18:43:03.214Z,1.00
2023-02-09T18:45:33.070Z,0.86
2023-02-09T18:48:00.569Z,0.89
2023-02-09T18:50:30.058Z,0.83
2023-02-09T18:52:59.158Z,0.84
2023-02-09T18:55:31.025Z,0.52
2023-02-09T18:57:59.940Z,0.49
2023-02-09T19:00:27.029Z,0.59
2023-02-09T19:02:57.530Z,0.54
2023-02-09T19:05:26.287Z,0.42
2023-02-09T19:07:52.914Z,0.56
2023-02-09T19:10:20.612Z,0.37
2023-02-09T19:12:47.537Z,0.21
2023-02-09T19:15:15.367Z,0.24
2023-02-09T19:17:42.160Z,0.25
2023-02-09T19:20:12.692Z,0.26
2023-02-09T19:22:39.171Z,0.29
2023-02-09T19:25:05.939Z,0.40
2023-02-09T19:27:32.417Z,0.46
2023-02-09T19:29:58.983Z,0.58
2023-02-09T19:32:26.961Z,0.55
2023-02-09T19:34:53.471Z,0.69
2023-02-09T19:37:21.822Z,0.65
2023-02-09T19:40:09.054Z,0.61
2023-02-09T19:42:35.504Z,0.46
2023-02-09T19:45:01.901Z,0.33
2023-02-09T19:47:28.421Z,0.35
2023-02-09T19:49:56.149Z,0.27
2023-02-09T19:52:23.141Z,0.18
2023-02-09T19:54:50.623Z,0.16
2023-02-09T19:57:21.314Z,0.08
2023-02-09T19:59:48.106Z,0.07
2023-02-09T20:02:15.978Z,0.24
2023-02-09T20:04:43.201Z,0.33
2023-02-09T20:07:10.924Z,0.30
2023-02-09T20:09:37.500Z,0.28
2023-02-09T20:12:04.293Z,0.27
2023-02-09T20:14:33.042Z,0.22
2023-02-09T20:17:00.045Z,0.19
2023-02-09T20:19:26.894Z,0.11
2023-02-09T20:21:53.306Z,0.05
2023-02-09T20:24:19.855Z,-0.02
2023-02-09T20:26:46.691Z,-0.03
2023-02-09T20:29:13.653Z,-0.05
2023-02-09T20:31:41.741Z,-0.11
2023-02-09T20:34:10.096Z,-0.20
2023-02-09T20:36:40.564Z,-0.32
2023-02-09T20:39:10.111Z,-0.40
2023-02-09T20:41:36.706Z,-0.45
2023-02-09T20:44:21.682Z,-0.49
2023-02-09T20:46:56.905Z,-0.48
2023-02-09T20:49:31.230Z,-0.54
2023-02-09T20:51:58.443Z,-0.57
2023-02-09T20:54:25.510Z,-0.65
2023-02-09T20:56:52.171Z,-0.63
2023-02-09T20:59:18.661Z,-0.59
2023-02-09T21:01:45.964Z,-0.65
2023-02-09T21:04:12.537Z,-0.66
2023-02-09T21:06:39.063Z,-0.66
2023-02-09T21:09:06.825Z,-0.71
2023-02-09T21:11:33.781Z,-0.80
2023-02-09T21:14:03.139Z,-0.93
2023-02-09T21:16:30.877Z,-0.96
2023-02-09T21:18:58.026Z,-0.98
2023-02-09T21:21:26.212Z,-1.04
2023-02-09T21:23:53.682Z,-1.05
2023-02-09T21:26:22.904Z,-1.07
2023-02-09T21:28:51.933Z,-1.09
2023-02-09T21:31:21.401Z,-1.16
2023-02-09T21:33:48.051Z,-1.19
2023-02-09T21:36:14.709Z,-1.25
2023-02-09T21:38:43.724Z,-1.32
2023-02-09T21:41:42.093Z,-1.35
2023-02-09T21:44:10.051Z,-1.36
2023-02-09T21:46:36.501Z,-1.26
2023-02-09T21:49:03.045Z,-1.24
2023-02-09T21:51:29.481Z,-1.26
2023-02-09T21:53:56.143Z,-1.32
2023-02-09T21:56:22.846Z,-1.33
2023-02-09T21:58:49.450Z,-1.31
2023-02-09T22:01:16.212Z,-1.36
2023-02-09T22:03:43.906Z,-1.38
2023-02-09T22:06:10.950Z,-1.45
2023-02-09T22:08:37.601Z,-1.46
2023-02-09T22:11:06.028Z,-1.44
2023-02-09T22:13:33.586Z,-1.50
2023-02-09T22:16:00.566Z,-1.51
2023-02-09T22:18:27.051Z,-1.51
2023-02-09T22:20:53.535Z,-1.52
2023-02-09T22:23:20.284Z,-1.56
2023-02-09T22:25:46.899Z,-1.62
2023-02-09T22:28:13.898Z,-1.69
2023-02-09T22:30:41.075Z,-1.69
2023-02-09T22:33:07.608Z,-1.71
2023-02-09T22:35:34.155Z,-1.67
2023-02-09T22:38:01.801Z,-1.67
2023-02-09T22:40:28.240Z,-1.70
2023-02-09T22:42:54.766Z,-1.73
2023-02-09T22:45:21.196Z,-1.77
2023-02-09T22:47:47.623Z,-1.84
2023-02-09T22:50:14.135Z,-1.84
2023-02-09T22:52:40.891Z,-1.91
2023-02-09T22:55:07.416Z,-1.78
2023-02-09T22:57:33.823Z,-1.70
2023-02-09T23:00:00.413Z,-1.61
2023-02-09T23:02:26.938Z,-1.59
2023-02-09T23:04:53.551Z,-1.60
2023-02-09T23:07:20.240Z,-1.65
2023-02-09T23:09:46.693Z,-1.71
2023-02-09T23:12:13.190Z,-1.72
2023-02-09T23:14:39.736Z,-1.73
2023-02-09T23:17:06.486Z,-1.74
2023-02-09T23:19:32.895Z,-1.68
2023-02-09T23:21:59.785Z,-1.70
2023-02-09T23:24:26.702Z,-1.70
2023-02-09T23:26:54.256Z,-1.74
2023-02-09T23:29:21.722Z,-1.79
2023-02-09T23:31:48.648Z,-1.84
2023-02-09T23:34:18.179Z,-1.91
2023-02-09T23:36:45.001Z,-1.87
2023-02-09T23:39:14.620Z,-1.85
2023-02-09T23:41:41.104Z,-1.88
2023-02-09T23:44:07.870Z,-1.91
2023-02-09T23:46:34.717Z,-1.90
2023-02-09T23:49:01.161Z,-1.97
2023-02-09T23:51:34.490Z,-2.02
2023-02-09T23:54:03.252Z,-1.90
2023-02-09T23:56:33.193Z,-1.94
2023-02-09T23:58:59.609Z,-1.85
